Time,TemperatureF,DewpointF,PressureIn,WindDirection,WindDirectionDegrees,WindSpeedMPH,WindSpeedGustMPH,Humidity,HourlyPrecipIn,Conditions,Clouds,dailyrainin,SolarRadiationWatts/m^2,SoftwareType,DateUTC
2013-10-12 00:00:00,56.8,52.3,29.94,NE,53,0.0,1.0,85,0.00,,,0.00,0.0,meteohub,2013-10-12 04:00:00,
2013-10-12 00:01:00,56.8,52.3,29.94,NE,53,0.0,1.0,85,0.00,,,0.00,0.0,meteohub,2013-10-12 04:01:00,
2013-10-12 00:02:00,56.8,52.3,29.94,NE,53,0.0,1.0,85,0.00,,,0.00,0.0,meteohub,2013-10-12 04:02:00,
2013-10-12 00:07:00,56.8,52.3,29.94,NE,54,0.0,1.0,85,0.00,,,0.00,0.0,meteohub,2013-10-12 04:07:00,
2013-10-12 00:12:00,57.0,52.5,29.94,NE,54,0.0,1.0,85,0.00,,,0.00,0.0,meteohub,2013-10-12 04:12:00,
2013-10-12 00:17:00,57.2,52.3,29.94,NE,54,0.0,1.0,84,0.00,,,0.00,0.0,meteohub,2013-10-12 04:17:00,
2013-10-12 00:23:00,57.0,52.5,29.94,NE,54,0.0,1.0,85,0.00,,,0.00,0.0,meteohub,2013-10-12 04:23:00,
2013-10-12 00:28:00,56.8,52.3,29.94,NE,54,0.0,1.0,85,0.00,,,0.00,0.0,meteohub,2013-10-12 04:28:00,
2013-10-12 00:33:00,56.8,52.3,29.94,NE,54,0.0,1.0,85,0.00,,,0.00,0.0,meteohub,2013-10-12 04:33:00,
2013-10-12 00:38:00,56.8,52.3,29.94,SE,131,0.0,1.0,85,0.00,,,0.00,0.0,meteohub,2013-10-12 04:38:00,
2013-10-12 00:43:00,56.8,52.3,29.94,SE,131,0.0,2.0,85,0.00,,,0.00,0.0,meteohub,2013-10-12 04:43:00,
2013-10-12 00:48:00,56.7,52.5,29.94,SE,131,0.0,2.0,86,0.00,,,0.00,0.0,meteohub,2013-10-12 04:48:00,
2013-10-12 00:53:00,56.7,52.5,29.94,SE,131,0.0,1.0,86,0.00,,,0.00,0.0,meteohub,2013-10-12 04:53:00,
2013-10-12 00:58:00,56.5,52.3,29.94,SE,131,0.0,1.0,86,0.00,,,0.00,0.0,meteohub,2013-10-12 04:58:00,
2013-10-12 01:04:00,56.7,52.5,29.94,SE,131,0.0,0.0,86,0.00,,,0.00,0.0,meteohub,2013-10-12 05:04:00,
2013-10-12 01:09:00,56.8,52.7,29.94,SE,131,0.0,1.0,86,0.00,,,0.00,0.0,meteohub,2013-10-12 05:09:00,
2013-10-12 01:14:00,57.0,52.5,29.94,SE,131,0.0,1.0,85,0.00,,,0.00,0.0,meteohub,2013-10-12 05:14:00,
2013-10-12 01:19:00,57.2,52.7,29.94,SE,131,0.0,1.0,85,0.00,,,0.00,0.0,meteohub,2013-10-12 05:19:00,
2013-10-12 01:24:00,57.4,52.9,29.94,SE,131,0.0,1.0,85,0.00,,,0.00,0.0,meteohub,2013-10-12 05:24:00,
2013-10-12 01:29:00,56.8,52.7,29.94,SE,131,0.0,1.0,86,0.00,,,0.00,0.0,meteohub,2013-10-12 05:29:00,
2013-10-12 01:34:00,56.7,52.5,29.94,SE,131,0.0,1.0,86,0.00,,,0.00,0.0,meteohub,2013-10-12 05:34:00,
2013-10-12 01:39:00,56.8,52.7,29.94,SE,131,0.0,1.0,86,0.00,,,0.00,0.0,meteohub,2013-10-12 05:39:00,
2013-10-12 01:44:00,56.8,52.3,29.94,SE,131,0.0,1.0,85,0.00,,,0.00,0.0,meteohub,2013-10-12 05:44:00,
2013-10-12 01:49:00,57.0,52.5,29.94,SE,131,0.0,1.0,85,0.00,,,0.00,0.0,meteohub,2013-10-12 05:49:00,
2013-10-12 01:54:00,57.0,52.5,29.94,SE,131,0.0,1.0,85,0.00,,,0.00,0.0,meteohub,2013-10-12 05:54:00,
2013-10-12 02:00:00,57.4,52.5,29.94,NE,50,0.0,1.0,84,0.00,,,0.00,0.0,meteohub,2013-10-12 06:00:00,
2013-10-12 02:05:00,57.4,52.5,29.94,NE,50,0.0,3.0,84,0.00,,,0.00,0.0,meteohub,2013-10-12 06:05:00,
2013-10-12 02:10:00,57.2,52.3,29.95,NE,50,0.0,3.0,84,0.00,,,0.00,0.0,meteohub,2013-10-12 06:10:00,
2013-10-12 02:15:00,57.0,52.5,29.95,NE,50,0.0,1.0,85,0.00,,,0.00,0.0,meteohub,2013-10-12 06:15:00,
2013-10-12 02:20:00,57.0,52.5,29.95,NE,50,0.0,1.0,85,0.00,,,0.00,0.0,meteohub,2013-10-12 06:20:00,
2013-10-12 02:25:00,56.8,52.3,29.95,NE,50,0.0,1.0,85,0.00,,,0.00,0.0,meteohub,2013-10-12 06:25:00,
2013-10-12 02:30:00,57.0,52.5,29.95,NE,50,0.0,1.0,85,0.00,,,0.00,0.0,meteohub,2013-10-12 06:30:00,
2013-10-12 02:35:00,56.7,52.5,29.95,NE,50,0.0,1.0,86,0.00,,,0.00,0.0,meteohub,2013-10-12 06:35:00,
2013-10-12 02:40:00,56.1,52.0,29.94,NE,50,0.0,1.0,86,0.00,,,0.00,0.0,meteohub,2013-10-12 06:40:00,
2013-10-12 02:45:00,56.1,52.3,29.94,NE,50,0.0,1.0,87,0.00,,,0.00,0.0,meteohub,2013-10-12 06:45:00,
2013-10-12 02:51:00,56.1,52.3,29.94,North,11,0.0,3.0,87,0.00,,,0.00,0.0,meteohub,2013-10-12 06:51:00,
2013-10-12 02:56:00,56.5,52.3,29.94,North,11,0.0,3.0,86,0.00,,,0.00,0.0,meteohub,2013-10-12 06:56:00,
2013-10-12 03:01:00,56.5,52.0,29.94,North,11,0.0,3.0,85,0.00,,,0.00,0.0,meteohub,2013-10-12 07:01:00,
2013-10-12 03:06:00,56.5,52.3,29.94,North,11,0.0,2.0,86,0.00,,,0.00,0.0,meteohub,2013-10-12 07:06:00,
2013-10-12 03:11:00,56.5,52.7,29.94,North,11,0.0,2.0,87,0.00,,,0.00,0.0,meteohub,2013-10-12 07:11:00,
2013-10-12 03:16:00,56.3,52.5,29.94,North,11,0.0,1.0,87,0.00,,,0.00,0.0,meteohub,2013-10-12 07:16:00,
2013-10-12 03:21:00,56.1,52.3,29.94,North,11,0.0,1.0,87,0.00,,,0.00,0.0,meteohub,2013-10-12 07:21:00,
2013-10-12 03:26:00,55.9,52.2,29.94,North,11,0.0,1.0,87,0.00,,,0.00,0.0,meteohub,2013-10-12 07:26:00,
2013-10-12 03:31:00,55.9,52.5,29.94,North,11,0.0,1.0,88,0.00,,,0.00,0.0,meteohub,2013-10-12 07:31:00,
2013-10-12 03:36:00,55.9,52.5,29.94,North,11,0.0,1.0,88,0.00,,,0.00,0.0,meteohub,2013-10-12 07:36:00,
2013-10-12 03:41:00,55.9,52.2,29.95,North,11,0.0,1.0,87,0.00,,,0.00,0.0,meteohub,2013-10-12 07:41:00,
2013-10-12 03:47:00,55.9,51.8,29.94,North,11,0.0,2.0,86,0.00,,,0.00,0.0,meteohub,2013-10-12 07:47:00,
2013-10-12 03:52:00,55.9,51.8,29.95,North,11,0.0,2.0,86,0.00,,,0.00,0.0,meteohub,2013-10-12 07:52:00,
2013-10-12 03:57:00,56.1,52.0,29.95,North,11,1.0,2.0,86,0.00,,,0.00,0.0,meteohub,2013-10-12 07:57:00,
2013-10-12 04:02:00,56.1,52.0,29.95,North,11,0.0,2.0,86,0.00,,,0.00,0.0,meteohub,2013-10-12 08:02:00,
2013-10-12 04:07:00,56.1,52.0,29.95,North,11,0.0,2.0,86,0.00,,,0.00,0.0,meteohub,2013-10-12 08:07:00,
2013-10-12 04:12:00,55.9,51.8,29.95,North,11,0.0,2.0,86,0.00,,,0.00,0.0,meteohub,2013-10-12 08:12:00,
2013-10-12 04:17:00,55.9,51.8,29.95,North,11,0.0,2.0,86,0.00,,,0.00,0.0,meteohub,2013-10-12 08:17:00,
2013-10-12 04:22:00,55.9,52.2,29.94,North,11,0.0,2.0,87,0.00,,,0.00,0.0,meteohub,2013-10-12 08:22:00,
2013-10-12 04:27:00,55.9,52.2,29.94,North,11,0.0,2.0,87,0.00,,,0.00,0.0,meteohub,2013-10-12 08:27:00,
2013-10-12 04:32:00,55.8,52.0,29.94,North,11,1.0,2.0,87,0.00,,,0.00,0.0,meteohub,2013-10-12 08:32:00,
2013-10-12 04:37:00,55.8,52.0,29.95,North,11,0.0,2.0,87,0.00,,,0.00,0.0,meteohub,2013-10-12 08:37:00,
2013-10-12 04:42:00,55.6,52.2,29.95,North,11,0.0,1.0,88,0.00,,,0.00,0.0,meteohub,2013-10-12 08:42:00,
2013-10-12 04:47:00,55.2,51.8,29.95,North,11,0.0,1.0,88,0.00,,,0.00,0.0,meteohub,2013-10-12 08:47:00,
2013-10-12 04:52:00,55.2,52.0,29.95,North,11,0.0,1.0,89,0.00,,,0.00,0.0,meteohub,2013-10-12 08:52:00,
2013-10-12 04:57:00,55.0,51.8,29.95,North,11,0.0,1.0,89,0.00,,,0.00,0.0,meteohub,2013-10-12 08:57:00,
2013-10-12 05:02:00,55.0,51.8,29.95,North,11,0.0,1.0,89,0.00,,,0.00,0.0,meteohub,2013-10-12 09:02:00,
2013-10-12 05:07:00,55.0,51.8,29.95,North,11,0.0,1.0,89,0.00,,,0.00,0.0,meteohub,2013-10-12 09:07:00,
2013-10-12 05:12:00,55.0,51.8,29.95,North,11,1.0,1.0,89,0.00,,,0.00,0.0,meteohub,2013-10-12 09:12:00,
2013-10-12 05:17:00,55.0,51.8,29.95,North,11,0.0,2.0,89,0.00,,,0.00,0.0,meteohub,2013-10-12 09:17:00,
2013-10-12 05:22:00,55.2,52.0,29.95,North,11,0.0,2.0,89,0.00,,,0.00,0.0,meteohub,2013-10-12 09:22:00,
2013-10-12 05:27:00,55.2,52.0,29.95,North,11,0.0,2.0,89,0.00,,,0.00,0.0,meteohub,2013-10-12 09:27:00,
2013-10-12 05:32:00,55.0,51.8,29.96,North,11,1.0,1.0,89,0.00,,,0.00,0.0,meteohub,2013-10-12 09:32:00,
2013-10-12 05:37:00,55.0,51.8,29.96,North,11,0.0,2.0,89,0.00,,,0.00,0.0,meteohub,2013-10-12 09:37:00,
2013-10-12 05:42:00,55.0,51.8,29.96,North,11,0.0,2.0,89,0.00,,,0.00,0.0,meteohub,2013-10-12 09:42:00,
2013-10-12 05:47:00,55.0,51.6,29.96,North,11,2.0,2.0,88,0.00,,,0.00,0.0,meteohub,2013-10-12 09:47:00,
2013-10-12 05:52:00,55.4,52.0,29.96,North,11,0.0,3.0,88,0.00,,,0.00,0.0,meteohub,2013-10-12 09:52:00,
2013-10-12 05:57:00,55.8,52.3,29.96,NNE,30,1.0,3.0,88,0.00,,,0.00,0.0,meteohub,2013-10-12 09:57:00,
2013-10-12 06:02:00,55.9,52.2,29.96,NNE,30,1.0,3.0,87,0.00,,,0.00,0.0,meteohub,2013-10-12 10:02:00,
2013-10-12 06:07:00,56.1,52.3,29.97,NNE,28,1.0,3.0,87,0.00,,,0.00,0.0,meteohub,2013-10-12 10:07:00,
2013-10-12 06:12:00,56.1,52.7,29.97,NNE,28,0.0,3.0,88,0.00,,,0.00,0.0,meteohub,2013-10-12 10:12:00,
2013-10-12 06:17:00,55.8,52.3,29.97,NNE,28,1.0,3.0,88,0.00,,,0.00,0.0,meteohub,2013-10-12 10:17:00,
2013-10-12 06:22:00,55.6,52.3,29.97,NNE,28,0.0,3.0,89,0.00,,,0.00,0.0,meteohub,2013-10-12 10:22:00,
2013-10-12 06:27:00,55.8,52.3,29.97,NNE,28,0.0,3.0,88,0.00,,,0.00,0.0,meteohub,2013-10-12 10:27:00,
2013-10-12 06:32:00,55.9,52.5,29.97,NNE,28,0.0,3.0,88,0.00,,,0.00,0.0,meteohub,2013-10-12 10:32:00,
2013-10-12 06:37:00,56.1,52.3,29.97,NNE,28,0.0,3.0,87,0.00,,,0.00,0.0,meteohub,2013-10-12 10:37:00,
2013-10-12 06:42:00,56.1,52.3,29.97,NNE,28,1.0,3.0,87,0.00,,,0.00,0.0,meteohub,2013-10-12 10:42:00,
2013-10-12 06:47:00,56.3,52.2,29.97,NNE,29,2.0,3.0,86,0.00,,,0.00,0.0,meteohub,2013-10-12 10:47:00,
2013-10-12 06:52:00,56.3,52.5,29.97,NE,49,2.0,4.0,87,0.00,,,0.00,0.0,meteohub,2013-10-12 10:52:00,
2013-10-12 06:57:00,56.5,52.3,29.97,NNE,32,1.0,4.0,86,0.00,,,0.00,0.0,meteohub,2013-10-12 10:57:00,
2013-10-12 07:02:00,56.5,52.3,29.97,NNE,32,0.0,4.0,86,0.00,,,0.00,0.0,meteohub,2013-10-12 11:02:00,
2013-10-12 07:07:00,56.3,52.5,29.97,NNE,32,1.0,4.0,87,0.00,,,0.00,0.0,meteohub,2013-10-12 11:07:00,
2013-10-12 07:12:00,55.9,52.2,29.97,NNE,32,1.0,4.0,87,0.00,,,0.00,0.0,meteohub,2013-10-12 11:12:00,
2013-10-12 07:17:00,55.8,52.3,29.97,NNE,32,2.0,2.0,88,0.00,,,0.00,0.0,meteohub,2013-10-12 11:17:00,
2013-10-12 07:22:00,55.6,52.2,29.98,NNE,32,1.0,2.0,88,0.00,,,0.00,0.0,meteohub,2013-10-12 11:22:00,
2013-10-12 07:27:00,55.4,52.0,29.98,NNE,28,0.0,2.0,88,0.00,,,0.00,0.0,meteohub,2013-10-12 11:27:00,
2013-10-12 07:33:00,55.2,52.0,29.98,NNE,28,0.0,2.0,89,0.00,,,0.00,0.0,meteohub,2013-10-12 11:33:00,
2013-10-12 07:38:00,54.9,52.0,29.98,NNE,28,0.0,2.0,90,0.00,,,0.00,0.0,meteohub,2013-10-12 11:38:00,
2013-10-12 07:43:00,54.7,51.8,29.98,NNE,28,0.0,2.0,90,0.00,,,0.00,0.0,meteohub,2013-10-12 11:43:00,
2013-10-12 07:48:00,54.7,51.4,29.98,NNE,28,1.0,1.0,89,0.00,,,0.00,5.0,meteohub,2013-10-12 11:48:00,
2013-10-12 07:53:00,54.9,52.0,29.98,NNE,28,0.0,1.0,90,0.00,,,0.00,7.0,meteohub,2013-10-12 11:53:00,
2013-10-12 07:58:00,55.0,51.8,29.98,NNE,28,0.0,1.0,89,0.00,,,0.00,11.0,meteohub,2013-10-12 11:58:00,
2013-10-12 08:03:00,55.2,52.0,29.99,NE,36,0.0,2.0,89,0.00,,,0.00,11.0,meteohub,2013-10-12 12:03:00,
2013-10-12 08:08:00,55.8,52.3,29.99,NE,36,0.0,2.0,88,0.00,,,0.00,11.0,meteohub,2013-10-12 12:08:00,
2013-10-12 08:14:00,55.9,52.5,29.99,NE,36,0.0,2.0,88,0.00,,,0.00,12.0,meteohub,2013-10-12 12:14:00,
2013-10-12 08:19:00,56.1,52.3,29.99,NE,36,0.0,2.0,87,0.00,,,0.00,11.0,meteohub,2013-10-12 12:19:00,
2013-10-12 08:24:00,56.1,52.3,29.99,North,9,1.0,2.0,87,0.00,,,0.00,11.0,meteohub,2013-10-12 12:24:00,
2013-10-12 08:29:00,56.1,52.3,29.99,North,9,1.0,3.0,87,0.00,,,0.00,12.0,meteohub,2013-10-12 12:29:00,
2013-10-12 08:34:00,56.1,52.7,29.99,North,5,1.0,3.0,88,0.00,,,0.00,12.0,meteohub,2013-10-12 12:34:00,
2013-10-12 08:39:00,56.1,52.7,29.99,NNE,22,0.0,3.0,88,0.00,,,0.00,12.0,meteohub,2013-10-12 12:39:00,
2013-10-12 08:44:00,55.9,52.5,30.00,ENE,60,1.0,3.0,88,0.00,,,0.00,16.0,meteohub,2013-10-12 12:44:00,
2013-10-12 08:49:00,55.9,52.2,30.00,North,5,3.0,3.0,87,0.00,,,0.00,26.0,meteohub,2013-10-12 12:49:00,
2013-10-12 08:54:00,56.1,52.3,30.00,NNE,15,0.0,3.0,87,0.00,,,0.00,28.0,meteohub,2013-10-12 12:54:00,
2013-10-12 08:59:00,56.5,52.7,30.00,NNE,26,1.0,4.0,87,0.00,,,0.00,32.0,meteohub,2013-10-12 12:59:00,
2013-10-12 09:05:00,56.7,52.9,30.00,North,0,0.0,4.0,87,0.00,,,0.00,32.0,meteohub,2013-10-12 13:05:00,
2013-10-12 09:10:00,56.5,53.2,30.00,North,0,0.0,6.0,89,0.00,,,0.00,32.0,meteohub,2013-10-12 13:10:00,
2013-10-12 09:15:00,56.3,53.1,30.01,North,0,0.0,6.0,89,0.00,,,0.00,33.0,meteohub,2013-10-12 13:15:00,
2013-10-12 09:20:00,56.1,52.9,30.01,North,0,0.0,0.0,89,0.00,,,0.00,35.0,meteohub,2013-10-12 13:20:00,
2013-10-12 09:25:00,56.5,53.2,30.01,North,0,0.0,0.0,89,0.00,,,0.00,58.0,meteohub,2013-10-12 13:25:00,
2013-10-12 09:30:00,56.8,53.6,30.01,North,0,0.0,1.0,89,0.00,,,0.00,47.0,meteohub,2013-10-12 13:30:00,
2013-10-12 09:35:00,57.4,54.1,30.01,North,0,0.0,1.0,89,0.00,,,0.00,56.0,meteohub,2013-10-12 13:35:00,
2013-10-12 09:40:00,57.6,54.3,30.01,North,0,0.0,1.0,89,0.00,,,0.00,28.0,meteohub,2013-10-12 13:40:00,
2013-10-12 09:45:00,57.6,54.3,30.01,North,0,0.0,1.0,89,0.00,,,0.00,32.0,meteohub,2013-10-12 13:45:00,
2013-10-12 09:50:00,57.7,54.1,30.02,North,0,0.0,1.0,88,0.00,,,0.00,35.0,meteohub,2013-10-12 13:50:00,
2013-10-12 09:56:00,57.7,54.1,30.02,North,0,0.0,0.0,88,0.00,,,0.00,51.0,meteohub,2013-10-12 13:56:00,
2013-10-12 10:01:00,57.9,54.7,30.02,North,0,0.0,1.0,89,0.00,,,0.00,67.0,meteohub,2013-10-12 14:01:00,
2013-10-12 10:06:00,58.5,55.6,30.02,North,0,0.0,1.0,90,0.00,,,0.00,74.0,meteohub,2013-10-12 14:06:00,
2013-10-12 10:11:00,59.0,55.8,30.02,North,0,0.0,2.0,89,0.00,,,0.00,95.0,meteohub,2013-10-12 14:11:00,
2013-10-12 10:16:00,60.4,55.9,30.01,North,0,0.0,2.0,85,0.00,,,0.00,90.0,meteohub,2013-10-12 14:16:00,
2013-10-12 10:21:00,61.5,56.7,30.01,North,0,0.0,1.0,84,0.00,,,0.00,86.0,meteohub,2013-10-12 14:21:00,
2013-10-12 10:26:00,62.4,57.2,30.01,East,98,0.0,2.0,83,0.00,,,0.00,512.0,meteohub,2013-10-12 14:26:00,
2013-10-12 10:31:00,63.1,55.8,30.01,SW,221,1.0,2.0,77,0.00,,,0.00,534.0,meteohub,2013-10-12 14:31:00,
2013-10-12 10:36:00,63.7,56.3,30.01,SE,142,1.0,2.0,77,0.00,,,0.00,552.0,meteohub,2013-10-12 14:36:00,
2013-10-12 10:41:00,64.0,57.0,30.01,East,96,2.0,3.0,78,0.00,,,0.00,563.0,meteohub,2013-10-12 14:41:00,
2013-10-12 10:46:00,65.1,57.4,30.01,SSW,192,0.0,3.0,76,0.00,,,0.00,589.0,meteohub,2013-10-12 14:46:00,
2013-10-12 10:52:00,65.7,55.9,30.01,SE,126,1.0,3.0,71,0.00,,,0.00,638.0,meteohub,2013-10-12 14:52:00,
2013-10-12 10:57:00,66.7,56.7,30.01,North,5,1.0,3.0,70,0.00,,,0.00,751.0,meteohub,2013-10-12 14:57:00,
2013-10-12 11:02:00,67.1,55.8,30.01,South,171,1.0,3.0,67,0.00,,,0.00,137.0,meteohub,2013-10-12 15:02:00,
2013-10-12 11:07:00,64.6,56.1,30.01,West,265,0.0,3.0,74,0.00,,,0.00,158.0,meteohub,2013-10-12 15:07:00,
2013-10-12 11:12:00,63.7,55.6,30.01,South,173,0.0,3.0,75,0.00,,,0.00,160.0,meteohub,2013-10-12 15:12:00,
2013-10-12 11:17:00,64.0,56.7,30.01,South,173,0.0,3.0,77,0.00,,,0.00,775.0,meteohub,2013-10-12 15:17:00,
2013-10-12 11:22:00,64.6,56.8,30.01,South,173,0.0,3.0,76,0.00,,,0.00,176.0,meteohub,2013-10-12 15:22:00,
2013-10-12 11:27:00,64.9,56.8,30.01,SE,139,1.0,3.0,75,0.00,,,0.00,77.0,meteohub,2013-10-12 15:27:00,
2013-10-12 11:32:00,65.3,58.3,30.01,SE,128,1.0,3.0,78,0.00,,,0.00,710.0,meteohub,2013-10-12 15:32:00,
2013-10-12 11:37:00,65.8,56.1,30.01,SE,138,0.0,3.0,71,0.00,,,0.00,696.0,meteohub,2013-10-12 15:37:00,
2013-10-12 11:42:00,66.0,56.7,30.01,SSW,198,0.0,3.0,72,0.00,,,0.00,362.0,meteohub,2013-10-12 15:42:00,
2013-10-12 11:47:00,65.7,57.6,30.00,SE,144,0.0,3.0,75,0.00,,,0.00,209.0,meteohub,2013-10-12 15:47:00,
2013-10-12 11:52:00,65.8,57.7,30.00,North,5,1.0,3.0,75,0.00,,,0.00,538.0,meteohub,2013-10-12 15:52:00,
2013-10-12 11:57:00,67.6,57.9,30.00,ESE,104,0.0,3.0,71,0.00,,,0.00,492.0,meteohub,2013-10-12 15:57:00,
2013-10-12 12:02:00,66.7,57.7,30.00,SE,132,0.0,3.0,73,0.00,,,0.00,199.0,meteohub,2013-10-12 16:02:00,
2013-10-12 12:07:00,65.3,55.6,30.00,SE,132,0.0,3.0,71,0.00,,,0.00,251.0,meteohub,2013-10-12 16:07:00,
2013-10-12 12:12:00,65.1,57.0,30.00,SE,132,0.0,2.0,75,0.00,,,0.00,216.0,meteohub,2013-10-12 16:12:00,
2013-10-12 12:17:00,65.3,57.2,30.00,SE,140,0.0,1.0,75,0.00,,,0.00,315.0,meteohub,2013-10-12 16:17:00,
2013-10-12 12:22:00,66.0,56.7,30.00,WSW,255,1.0,2.0,72,0.00,,,0.00,207.0,meteohub,2013-10-12 16:22:00,
2013-10-12 12:27:00,66.0,56.3,30.00,South,174,3.0,4.0,71,0.00,,,0.00,192.0,meteohub,2013-10-12 16:27:00,
2013-10-12 12:32:00,67.3,59.9,30.00,North,11,1.0,4.0,77,0.00,,,0.00,914.0,meteohub,2013-10-12 16:32:00,
2013-10-12 12:37:00,68.5,59.5,29.99,NNE,14,0.0,4.0,73,0.00,,,0.00,909.0,meteohub,2013-10-12 16:37:00,
2013-10-12 12:42:00,69.1,58.1,30.00,North,11,0.0,4.0,68,0.00,,,0.00,216.0,meteohub,2013-10-12 16:42:00,
2013-10-12 12:47:00,67.3,56.8,29.99,North,11,1.0,4.0,69,0.00,,,0.00,269.0,meteohub,2013-10-12 16:47:00,
2013-10-12 12:52:00,66.2,56.5,29.99,North,11,1.0,3.0,71,0.00,,,0.00,332.0,meteohub,2013-10-12 16:52:00,
2013-10-12 12:57:00,67.6,59.4,29.99,North,11,0.0,2.0,75,0.00,,,0.00,427.0,meteohub,2013-10-12 16:57:00,
2013-10-12 13:02:00,67.8,57.7,29.99,WSW,257,0.0,2.0,70,0.00,,,0.00,376.0,meteohub,2013-10-12 17:02:00,
2013-10-12 13:07:00,68.4,58.6,29.99,South,187,1.0,3.0,71,0.00,,,0.00,462.0,meteohub,2013-10-12 17:07:00,
2013-10-12 13:12:00,68.0,57.4,29.99,South,187,1.0,3.0,69,0.00,,,0.00,174.0,meteohub,2013-10-12 17:12:00,
2013-10-12 13:17:00,69.1,58.1,29.99,North,11,2.0,3.0,68,0.00,,,0.00,930.0,meteohub,2013-10-12 17:17:00,
2013-10-12 13:22:00,69.3,57.4,29.99,SSE,155,0.0,3.0,66,0.00,,,0.00,935.0,meteohub,2013-10-12 17:22:00,
2013-10-12 13:27:00,69.6,57.7,29.99,SSE,156,0.0,3.0,66,0.00,,,0.00,206.0,meteohub,2013-10-12 17:27:00,
2013-10-12 13:32:00,68.7,58.1,29.99,South,185,2.0,3.0,69,0.00,,,0.00,376.0,meteohub,2013-10-12 17:32:00,
2013-10-12 13:37:00,69.1,58.8,29.99,SSW,197,0.0,3.0,70,0.00,,,0.00,292.0,meteohub,2013-10-12 17:37:00,
2013-10-12 13:43:00,69.1,59.4,29.98,SSW,197,0.0,3.0,71,0.00,,,0.00,292.0,meteohub,2013-10-12 17:43:00,
2013-10-12 13:48:00,68.9,59.9,29.98,SSW,197,0.0,3.0,73,0.00,,,0.00,250.0,meteohub,2013-10-12 17:48:00,
2013-10-12 13:53:00,68.4,59.0,29.98,SSW,197,0.0,2.0,72,0.00,,,0.00,271.0,meteohub,2013-10-12 17:53:00,
2013-10-12 13:58:00,67.8,59.9,29.98,WSW,249,0.0,2.0,76,0.00,,,0.00,250.0,meteohub,2013-10-12 17:58:00,
2013-10-12 14:03:00,68.0,59.7,29.98,WSW,251,0.0,3.0,75,0.00,,,0.00,350.0,meteohub,2013-10-12 18:03:00,
2013-10-12 14:08:00,67.8,59.2,29.98,SSW,200,0.0,3.0,74,0.00,,,0.00,250.0,meteohub,2013-10-12 18:08:00,
2013-10-12 14:13:00,67.5,58.8,29.98,ENE,75,0.0,3.0,74,0.00,,,0.00,239.0,meteohub,2013-10-12 18:13:00,
2013-10-12 14:18:00,67.6,59.7,29.98,ENE,78,0.0,3.0,76,0.00,,,0.00,229.0,meteohub,2013-10-12 18:18:00,
2013-10-12 14:23:00,67.5,59.2,29.98,SSW,203,1.0,3.0,75,0.00,,,0.00,316.0,meteohub,2013-10-12 18:23:00,
2013-10-12 14:28:00,67.6,59.4,29.98,South,186,2.0,2.0,75,0.00,,,0.00,227.0,meteohub,2013-10-12 18:28:00,
2013-10-12 14:33:00,68.4,60.1,29.98,SSW,213,2.0,2.0,75,0.00,,,0.00,833.0,meteohub,2013-10-12 18:33:00,
2013-10-12 14:39:00,68.2,58.8,29.99,SW,225,0.0,5.0,72,0.00,,,0.00,244.0,meteohub,2013-10-12 18:39:00,
2013-10-12 14:44:00,67.6,58.6,29.98,SW,229,0.0,5.0,73,0.00,,,0.00,206.0,meteohub,2013-10-12 18:44:00,
2013-10-12 14:49:00,67.1,59.4,29.99,SSW,192,0.0,5.0,76,0.00,,,0.00,141.0,meteohub,2013-10-12 18:49:00,
2013-10-12 14:54:00,66.7,60.1,29.99,SSW,192,0.0,4.0,79,0.00,,,0.00,243.0,meteohub,2013-10-12 18:54:00,
2013-10-12 14:59:00,66.7,58.6,29.99,SSW,192,0.0,4.0,75,0.00,,,0.00,243.0,meteohub,2013-10-12 18:59:00,
2013-10-12 15:04:00,67.3,59.0,29.99,SW,217,0.0,3.0,75,0.00,,,0.00,229.0,meteohub,2013-10-12 19:04:00,
2013-10-12 15:09:00,67.1,60.4,29.99,SW,218,0.0,1.0,79,0.00,,,0.00,178.0,meteohub,2013-10-12 19:09:00,
2013-10-12 15:14:00,66.7,59.7,29.99,SW,218,0.0,3.0,78,0.00,,,0.00,130.0,meteohub,2013-10-12 19:14:00,
2013-10-12 15:19:00,66.0,59.4,29.99,SW,218,0.0,3.0,79,0.00,,,0.00,98.0,meteohub,2013-10-12 19:19:00,
2013-10-12 15:24:00,65.8,59.2,29.99,SSW,213,0.0,3.0,79,0.00,,,0.00,76.0,meteohub,2013-10-12 19:24:00,
2013-10-12 15:29:00,65.5,59.5,29.99,SSW,213,0.0,1.0,81,0.00,,,0.00,91.0,meteohub,2013-10-12 19:29:00,
2013-10-12 15:34:00,65.1,59.5,29.99,SSW,213,0.0,1.0,82,0.00,,,0.00,72.0,meteohub,2013-10-12 19:34:00,
2013-10-12 15:39:00,64.9,59.7,29.99,SSW,213,0.0,1.0,83,0.00,,,0.00,62.0,meteohub,2013-10-12 19:39:00,
2013-10-12 15:44:00,64.8,59.9,29.99,SSW,213,0.0,0.0,84,0.00,,,0.00,70.0,meteohub,2013-10-12 19:44:00,
2013-10-12 15:49:00,64.8,59.9,29.99,SSW,213,0.0,0.0,84,0.00,,,0.00,114.0,meteohub,2013-10-12 19:49:00,
2013-10-12 15:55:00,64.8,59.9,29.99,SSW,213,0.0,0.0,84,0.00,,,0.00,116.0,meteohub,2013-10-12 19:55:00,
2013-10-12 16:00:00,65.1,59.9,29.99,SSW,213,0.0,0.0,83,0.00,,,0.00,121.0,meteohub,2013-10-12 20:00:00,
2013-10-12 16:05:00,65.5,60.3,29.99,SSW,213,0.0,0.0,83,0.00,,,0.00,135.0,meteohub,2013-10-12 20:05:00,
2013-10-12 16:10:00,65.7,60.4,30.00,SSW,213,0.0,0.0,83,0.00,,,0.00,84.0,meteohub,2013-10-12 20:10:00,
2013-10-12 16:15:00,65.7,60.6,30.00,SSW,213,0.0,0.0,84,0.00,,,0.00,107.0,meteohub,2013-10-12 20:15:00,
2013-10-12 16:20:00,65.7,60.6,30.00,SSW,213,0.0,0.0,84,0.00,,,0.00,149.0,meteohub,2013-10-12 20:20:00,
2013-10-12 16:25:00,65.8,60.3,30.00,SSW,213,0.0,0.0,82,0.00,,,0.00,149.0,meteohub,2013-10-12 20:25:00,
2013-10-12 16:30:00,65.8,60.8,30.00,SSW,213,0.0,0.0,84,0.00,,,0.00,146.0,meteohub,2013-10-12 20:30:00,
2013-10-12 16:35:00,65.7,60.6,30.00,SSW,213,0.0,2.0,84,0.00,,,0.00,130.0,meteohub,2013-10-12 20:35:00,
2013-10-12 16:40:00,65.8,60.8,30.00,SSW,213,0.0,2.0,84,0.00,,,0.00,162.0,meteohub,2013-10-12 20:40:00,
2013-10-12 16:46:00,66.6,61.2,29.99,SSW,213,0.0,2.0,83,0.00,,,0.00,172.0,meteohub,2013-10-12 20:46:00,
2013-10-12 16:51:00,66.6,60.6,29.99,SSW,213,0.0,1.0,81,0.00,,,0.00,179.0,meteohub,2013-10-12 20:51:00,
2013-10-12 16:56:00,66.9,60.6,29.99,SSW,213,1.0,1.0,80,0.00,,,0.00,527.0,meteohub,2013-10-12 20:56:00,
2013-10-12 17:01:00,67.1,60.8,29.99,SSW,206,0.0,2.0,80,0.00,,,0.00,176.0,meteohub,2013-10-12 21:01:00,
2013-10-12 17:06:00,67.3,60.6,29.99,South,187,0.0,2.0,79,0.00,,,0.00,438.0,meteohub,2013-10-12 21:06:00,
2013-10-12 17:11:00,67.5,61.2,29.99,SSE,151,0.0,2.0,80,0.00,,,0.00,397.0,meteohub,2013-10-12 21:11:00,
2013-10-12 17:16:00,67.6,61.5,29.99,SW,235,0.0,3.0,81,0.00,,,0.00,385.0,meteohub,2013-10-12 21:16:00,
2013-10-12 17:21:00,67.3,60.6,29.99,SW,236,1.0,3.0,79,0.00,,,0.00,348.0,meteohub,2013-10-12 21:21:00,
2013-10-12 17:26:00,66.6,60.3,29.99,SW,230,0.0,3.0,80,0.00,,,0.00,76.0,meteohub,2013-10-12 21:26:00,
2013-10-12 17:31:00,66.4,61.0,30.00,SW,230,0.0,3.0,83,0.00,,,0.00,81.0,meteohub,2013-10-12 21:31:00,
2013-10-12 17:37:00,65.8,60.8,30.00,SW,230,0.0,3.0,84,0.00,,,0.00,65.0,meteohub,2013-10-12 21:37:00,
2013-10-12 17:42:00,65.7,60.6,30.00,SW,230,0.0,1.0,84,0.00,,,0.00,67.0,meteohub,2013-10-12 21:42:00,
2013-10-12 17:47:00,65.7,60.4,30.00,West,268,0.0,0.0,83,0.00,,,0.00,63.0,meteohub,2013-10-12 21:47:00,
2013-10-12 17:52:00,65.5,60.4,30.01,West,268,0.0,1.0,84,0.00,,,0.00,74.0,meteohub,2013-10-12 21:52:00,
2013-10-12 17:57:00,65.3,60.1,30.01,SSE,165,0.0,1.0,83,0.00,,,0.00,60.0,meteohub,2013-10-12 21:57:00,
2013-10-12 18:02:00,64.9,59.9,30.01,SSE,165,0.0,1.0,84,0.00,,,0.00,18.0,meteohub,2013-10-12 22:02:00,
2013-10-12 18:07:00,64.8,60.1,30.01,SSE,165,0.0,1.0,85,0.00,,,0.00,51.0,meteohub,2013-10-12 22:07:00,
2013-10-12 18:12:00,64.6,59.9,30.01,South,190,0.0,0.0,85,0.00,,,0.00,14.0,meteohub,2013-10-12 22:12:00,
2013-10-12 18:17:00,64.4,59.5,30.01,South,190,0.0,2.0,84,0.00,,,0.00,7.0,meteohub,2013-10-12 22:17:00,
2013-10-12 18:22:00,64.2,59.9,30.02,South,190,0.0,2.0,86,0.00,,,0.00,5.0,meteohub,2013-10-12 22:22:00,
2013-10-12 18:27:00,64.0,60.1,30.01,South,190,0.0,1.0,87,0.00,,,0.00,0.0,meteohub,2013-10-12 22:27:00,
2013-10-12 18:32:00,64.0,59.7,30.01,South,190,0.0,1.0,86,0.00,,,0.00,0.0,meteohub,2013-10-12 22:32:00,
2013-10-12 18:37:00,63.9,59.2,30.01,South,190,0.0,1.0,85,0.00,,,0.00,0.0,meteohub,2013-10-12 22:37:00,
2013-10-12 18:42:00,63.7,59.0,30.02,South,190,0.0,1.0,85,0.00,,,0.00,0.0,meteohub,2013-10-12 22:42:00,
2013-10-12 18:47:00,63.5,59.2,30.02,South,190,0.0,1.0,86,0.00,,,0.00,0.0,meteohub,2013-10-12 22:47:00,
2013-10-12 18:52:00,63.3,59.0,30.02,South,190,0.0,0.0,86,0.00,,,0.00,0.0,meteohub,2013-10-12 22:52:00,
2013-10-12 18:57:00,63.3,59.0,30.02,South,190,0.0,0.0,86,0.00,,,0.00,0.0,meteohub,2013-10-12 22:57:00,
2013-10-12 19:02:00,63.3,59.0,30.02,South,190,0.0,0.0,86,0.00,,,0.00,0.0,meteohub,2013-10-12 23:02:00,
2013-10-12 19:07:00,63.1,58.8,30.02,South,190,0.0,0.0,86,0.00,,,0.00,0.0,meteohub,2013-10-12 23:07:00,
2013-10-12 19:12:00,63.3,59.0,30.03,South,190,0.0,1.0,86,0.00,,,0.00,0.0,meteohub,2013-10-12 23:12:00,
2013-10-12 19:17:00,63.1,58.6,30.03,South,190,0.0,2.0,85,0.00,,,0.00,0.0,meteohub,2013-10-12 23:17:00,
2013-10-12 19:22:00,63.1,59.2,30.03,South,190,0.0,2.0,87,0.00,,,0.00,0.0,meteohub,2013-10-12 23:22:00,
2013-10-12 19:27:00,63.0,59.4,30.03,South,190,0.0,1.0,88,0.00,,,0.00,0.0,meteohub,2013-10-12 23:27:00,
2013-10-12 19:32:00,62.8,59.2,30.03,South,190,0.0,1.0,88,0.00,,,0.00,0.0,meteohub,2013-10-12 23:32:00,
2013-10-12 19:37:00,62.6,59.0,30.03,South,190,0.0,0.0,88,0.00,,,0.00,0.0,meteohub,2013-10-12 23:37:00,
2013-10-12 19:42:00,62.6,59.0,30.04,South,190,0.0,0.0,88,0.00,,,0.00,0.0,meteohub,2013-10-12 23:42:00,
2013-10-12 19:47:00,62.8,58.8,30.03,South,190,0.0,0.0,87,0.00,,,0.00,0.0,meteohub,2013-10-12 23:47:00,
2013-10-12 19:52:00,62.6,58.6,30.03,South,190,0.0,0.0,87,0.00,,,0.00,0.0,meteohub,2013-10-12 23:52:00,
2013-10-12 19:57:00,62.4,58.8,30.03,South,190,0.0,0.0,88,0.00,,,0.00,0.0,meteohub,2013-10-12 23:57:00,
2013-10-12 20:02:00,62.2,58.6,30.04,South,190,0.0,0.0,88,0.00,,,0.00,0.0,meteohub,2013-10-13 00:02:00,
2013-10-12 20:07:00,62.2,59.0,30.03,South,190,0.0,0.0,89,0.00,,,0.00,0.0,meteohub,2013-10-13 00:07:00,
2013-10-12 20:12:00,62.1,58.8,30.04,South,190,0.0,0.0,89,0.00,,,0.00,0.0,meteohub,2013-10-13 00:12:00,
2013-10-12 20:17:00,62.1,59.2,30.03,South,190,0.0,0.0,90,0.00,,,0.00,0.0,meteohub,2013-10-13 00:17:00,
2013-10-12 20:22:00,61.9,59.0,30.03,South,190,0.0,0.0,90,0.00,,,0.00,0.0,meteohub,2013-10-13 00:22:00,
2013-10-12 20:27:00,61.9,59.0,30.03,South,190,0.0,0.0,90,0.00,,,0.00,0.0,meteohub,2013-10-13 00:27:00,
2013-10-12 20:32:00,61.9,59.0,30.03,South,190,0.0,0.0,90,0.00,,,0.00,0.0,meteohub,2013-10-13 00:32:00,
2013-10-12 20:37:00,61.9,58.6,30.03,South,190,0.0,0.0,89,0.00,,,0.00,0.0,meteohub,2013-10-13 00:37:00,
2013-10-12 20:42:00,61.7,58.5,30.03,South,190,0.0,0.0,89,0.00,,,0.00,0.0,meteohub,2013-10-13 00:42:00,
2013-10-12 20:47:00,61.9,58.6,30.03,South,190,0.0,0.0,89,0.00,,,0.00,0.0,meteohub,2013-10-13 00:47:00,
2013-10-12 20:52:00,61.7,58.5,30.03,South,190,0.0,0.0,89,0.00,,,0.00,0.0,meteohub,2013-10-13 00:52:00,
2013-10-12 20:57:00,61.5,58.3,30.03,South,190,0.0,1.0,89,0.00,,,0.00,0.0,meteohub,2013-10-13 00:57:00,
2013-10-12 21:02:00,61.3,58.1,30.03,South,190,0.0,1.0,89,0.00,,,0.00,0.0,meteohub,2013-10-13 01:02:00,
2013-10-12 21:07:00,61.2,57.9,30.03,South,190,0.0,1.0,89,0.00,,,0.00,0.0,meteohub,2013-10-13 01:07:00,
2013-10-12 21:12:00,61.2,57.6,30.03,South,190,1.0,1.0,88,0.00,,,0.00,0.0,meteohub,2013-10-13 01:12:00,
2013-10-12 21:17:00,61.2,57.2,30.03,South,190,1.0,1.0,87,0.00,,,0.00,0.0,meteohub,2013-10-13 01:17:00,
2013-10-12 21:22:00,61.0,56.8,30.03,South,190,0.0,1.0,86,0.00,,,0.00,0.0,meteohub,2013-10-13 01:22:00,
2013-10-12 21:27:00,60.8,56.3,30.03,South,190,1.0,1.0,85,0.00,,,0.00,0.0,meteohub,2013-10-13 01:27:00,
2013-10-12 21:32:00,60.4,56.3,30.03,South,190,1.0,2.0,86,0.00,,,0.00,0.0,meteohub,2013-10-13 01:32:00,
2013-10-12 21:37:00,60.3,55.8,30.03,South,190,1.0,2.0,85,0.00,,,0.00,0.0,meteohub,2013-10-13 01:37:00,
2013-10-12 21:42:00,60.3,56.1,30.03,South,190,1.0,2.0,86,0.00,,,0.00,0.0,meteohub,2013-10-13 01:42:00,
2013-10-12 21:47:00,59.7,55.2,30.03,South,190,0.0,2.0,85,0.00,,,0.00,0.0,meteohub,2013-10-13 01:47:00,
2013-10-12 21:52:00,59.4,55.2,30.03,South,190,0.0,2.0,86,0.00,,,0.00,0.0,meteohub,2013-10-13 01:52:00,
2013-10-12 21:57:00,59.2,54.7,30.03,South,190,0.0,2.0,85,0.00,,,0.00,0.0,meteohub,2013-10-13 01:57:00,
2013-10-12 22:02:00,59.0,54.9,30.04,South,190,0.0,1.0,86,0.00,,,0.00,0.0,meteohub,2013-10-13 02:02:00,
2013-10-12 22:07:00,58.8,55.0,30.04,South,190,1.0,1.0,87,0.00,,,0.00,0.0,meteohub,2013-10-13 02:07:00,
2013-10-12 22:12:00,58.8,55.0,30.04,South,190,0.0,1.0,87,0.00,,,0.00,0.0,meteohub,2013-10-13 02:12:00,
2013-10-12 22:17:00,58.8,54.7,30.04,South,190,0.0,1.0,86,0.00,,,0.00,0.0,meteohub,2013-10-13 02:17:00,
2013-10-12 22:22:00,58.6,54.5,30.04,South,190,0.0,1.0,86,0.00,,,0.00,0.0,meteohub,2013-10-13 02:22:00,
2013-10-12 22:27:00,58.8,54.7,30.04,South,190,0.0,1.0,86,0.00,,,0.00,0.0,meteohub,2013-10-13 02:27:00,
2013-10-12 22:32:00,58.6,54.1,30.05,South,190,0.0,1.0,85,0.00,,,0.00,0.0,meteohub,2013-10-13 02:32:00,
2013-10-12 22:38:00,58.8,54.3,30.05,South,190,0.0,0.0,85,0.00,,,0.00,0.0,meteohub,2013-10-13 02:38:00,
2013-10-12 22:43:00,58.6,54.5,30.05,South,190,0.0,0.0,86,0.00,,,0.00,0.0,meteohub,2013-10-13 02:43:00,
2013-10-12 22:48:00,58.5,54.3,30.05,South,190,0.0,0.0,86,0.00,,,0.00,0.0,meteohub,2013-10-13 02:48:00,
2013-10-12 22:53:00,58.5,54.3,30.05,South,190,0.0,0.0,86,0.00,,,0.00,0.0,meteohub,2013-10-13 02:53:00,
2013-10-12 22:58:00,58.3,54.5,30.05,South,190,0.0,0.0,87,0.00,,,0.00,0.0,meteohub,2013-10-13 02:58:00,
2013-10-12 23:03:00,57.9,54.3,30.05,South,190,0.0,0.0,88,0.00,,,0.00,0.0,meteohub,2013-10-13 03:03:00,
2013-10-12 23:08:00,57.7,54.1,30.05,South,190,0.0,0.0,88,0.00,,,0.00,0.0,meteohub,2013-10-13 03:08:00,
2013-10-12 23:13:00,57.9,54.1,30.05,South,190,0.0,0.0,87,0.00,,,0.00,0.0,meteohub,2013-10-13 03:13:00,
2013-10-12 23:18:00,57.9,54.3,30.05,South,190,0.0,0.0,88,0.00,,,0.00,0.0,meteohub,2013-10-13 03:18:00,
2013-10-12 23:23:00,57.7,54.1,30.05,South,190,0.0,0.0,88,0.00,,,0.00,0.0,meteohub,2013-10-13 03:23:00,
2013-10-12 23:29:00,57.7,54.1,30.06,South,190,0.0,0.0,88,0.00,,,0.00,0.0,meteohub,2013-10-13 03:29:00,
2013-10-12 23:34:00,57.6,54.3,30.05,South,190,0.0,0.0,89,0.00,,,0.00,0.0,meteohub,2013-10-13 03:34:00,
2013-10-12 23:39:00,57.6,54.0,30.05,South,190,0.0,1.0,88,0.00,,,0.00,0.0,meteohub,2013-10-13 03:39:00,
2013-10-12 23:44:00,57.7,54.1,30.06,South,190,0.0,1.0,88,0.00,,,0.00,0.0,meteohub,2013-10-13 03:44:00,
2013-10-12 23:49:00,57.9,54.3,30.06,South,190,0.0,1.0,88,0.00,,,0.00,0.0,meteohub,2013-10-13 03:49:00,
2013-10-12 23:54:00,57.9,54.3,30.06,South,190,0.0,1.0,88,0.00,,,0.00,0.0,meteohub,2013-10-13 03:54:00,
2013-10-12 23:59:00,57.7,54.1,30.06,South,190,0.0,0.0,88,0.00,,,0.00,0.0,meteohub,2013-10-13 03:59:00,